createdAt,value
2022-10-11T00:00:05.266Z,2.67
2022-10-11T00:05:13.308Z,2.40
2022-10-11T00:10:14.959Z,2.15
2022-10-11T00:15:19.299Z,2.83
2022-10-11T00:20:20.724Z,4.13
2022-10-11T00:25:22.085Z,2.45
2022-10-11T00:30:23.515Z,2.63
2022-10-11T00:35:25.243Z,2.50
2022-10-11T00:40:26.639Z,2.35
2022-10-11T00:45:27.991Z,2.90
2022-10-11T00:50:32.732Z,4.22
2022-10-11T00:55:49.939Z,2.83
2022-10-11T01:00:51.840Z,2.67
2022-10-11T01:05:53.858Z,2.65
2022-10-11T01:10:56.137Z,2.95
2022-10-11T01:16:22.618Z,2.30
2022-10-11T01:21:52.078Z,2.67
2022-10-11T01:27:10.337Z,2.43
2022-10-11T01:32:19.116Z,2.75
2022-10-11T01:37:32.650Z,3.10
2022-10-11T01:42:38.408Z,2.47
2022-10-11T01:47:39.836Z,2.78
2022-10-11T01:52:44.597Z,2.55
2022-10-11T01:58:22.226Z,2.50
2022-10-11T02:03:50.840Z,2.88
2022-10-11T02:08:55.685Z,2.30
2022-10-11T02:14:07.225Z,2.60
2022-10-11T02:19:11.916Z,2.75
2022-10-11T02:24:22.152Z,3.22
2022-10-11T02:29:27.648Z,2.40
2022-10-11T02:34:38.070Z,2.88
2022-10-11T02:39:52.412Z,3.15
2022-10-11T02:45:02.936Z,2.40
2022-10-11T02:50:05.097Z,2.63
2022-10-11T02:55:07.883Z,2.80
2022-10-11T03:00:10.055Z,3.35
2022-10-11T03:05:11.459Z,2.72
2022-10-11T03:10:12.875Z,2.78
2022-10-11T03:15:14.257Z,3.15
2022-10-11T03:20:15.696Z,3.22
2022-10-11T03:25:17.363Z,3.63
2022-10-11T03:30:18.744Z,3.10
2022-10-11T03:35:20.338Z,3.05
2022-10-11T03:40:21.676Z,3.35
2022-10-11T03:45:23.180Z,3.40
2022-10-11T03:50:24.572Z,2.67
2022-10-11T03:55:25.944Z,2.75
2022-10-11T04:00:27.298Z,3.30
2022-10-11T04:05:28.693Z,3.42
2022-10-11T04:10:30.363Z,2.65
2022-10-11T04:15:32.213Z,3.10
2022-10-11T04:20:34.269Z,3.50
2022-10-11T04:25:38.727Z,3.67
2022-10-11T04:30:40.261Z,3.97
2022-10-11T04:35:41.643Z,3.92
2022-10-11T04:46:01.078Z,4.82
2022-10-11T04:56:59.159Z,7.03
2022-10-11T05:24:55.002Z,11.55
2022-10-11T05:29:54.580Z,13.20
2022-10-11T05:34:58.965Z,11.70
2022-10-11T05:40:00.477Z,10.95
2022-10-11T05:45:05.417Z,11.73
2022-10-11T05:50:07.461Z,11.43
2022-10-11T05:55:09.404Z,11.13
2022-10-11T06:00:11.321Z,10.55
2022-10-11T06:05:12.706Z,11.48
2022-10-11T06:10:14.200Z,11.75
2022-10-11T06:15:15.871Z,11.82
2022-10-11T06:20:17.507Z,13.60
2022-10-11T06:25:19.105Z,12.07
2022-10-11T06:30:20.544Z,12.38
2022-10-11T06:35:22.061Z,13.70
2022-10-11T06:40:24.334Z,16.33
2022-10-11T06:45:25.809Z,12.77
2022-10-11T06:50:54.461Z,13.80
2022-10-11T06:55:50.955Z,13.43
2022-10-11T07:00:52.445Z,13.70
2022-10-11T07:05:53.967Z,17.52
2022-10-11T07:11:15.368Z,16.63
2022-10-11T07:16:17.622Z,16.70
2022-10-11T07:21:19.853Z,18.45
2022-10-11T07:26:21.407Z,22.23
2022-10-11T07:31:25.268Z,18.60
2022-10-11T07:36:28.236Z,19.65
2022-10-11T07:41:29.748Z,20.70
2022-10-11T07:46:31.687Z,19.33
2022-10-11T07:51:38.193Z,25.33
2022-10-11T07:56:39.890Z,21.95
2022-10-11T08:01:41.380Z,20.92
2022-10-11T08:07:11.768Z,24.08
2022-10-11T08:12:13.204Z,25.63
2022-10-11T08:17:14.799Z,22.63
2022-10-11T08:22:16.305Z,25.42
2022-10-11T08:27:17.793Z,25.80
2022-10-11T08:32:19.332Z,27.70
2022-10-11T08:37:20.886Z,24.48
2022-10-11T08:42:39.419Z,23.65
2022-10-11T08:47:44.110Z,23.05
2022-10-11T08:53:02.171Z,25.80
2022-10-11T08:58:20.708Z,23.95
2022-10-11T09:03:25.454Z,25.17
2022-10-11T09:14:10.296Z,24.30
2022-10-11T09:38:14.949Z,27.17
2022-10-11T10:00:21.747Z,24.00
2022-10-11T10:05:39.704Z,21.35
2022-10-11T10:16:36.697Z,23.25
2022-10-11T10:21:45.694Z,20.25
2022-10-11T10:27:19.516Z,22.80
2022-10-11T10:32:36.005Z,20.33
2022-10-11T10:37:55.884Z,20.42
2022-10-11T10:43:00.856Z,18.90
2022-10-11T10:48:28.613Z,19.10
2022-10-11T10:54:13.808Z,18.52
2022-10-11T10:59:43.879Z,18.20
2022-10-11T11:10:21.587Z,16.77
2022-10-11T11:15:47.793Z,16.58
2022-10-11T11:20:55.049Z,14.30
2022-10-11T11:26:22.232Z,14.18
2022-10-11T11:31:46.401Z,13.63
2022-10-11T11:37:12.470Z,13.80
2022-10-11T11:42:22.945Z,10.70
2022-10-11T11:47:37.586Z,9.05
2022-10-11T11:52:51.722Z,7.95
2022-10-11T11:58:16.915Z,7.20
2022-10-11T12:03:46.860Z,6.90
2022-10-11T12:09:09.508Z,5.53
2022-10-11T12:14:39.348Z,5.18
2022-10-11T12:20:06.808Z,4.07
2022-10-11T12:25:25.774Z,2.10
2022-10-11T12:30:42.901Z,2.80
2022-10-11T12:36:32.320Z,2.78
2022-10-11T12:53:01.589Z,3.10
2022-10-11T12:58:06.286Z,3.58
2022-10-11T13:15:39.351Z,3.60
2022-10-11T13:20:38.909Z,3.53
2022-10-11T13:25:44.146Z,2.80
2022-10-11T13:36:05.504Z,3.17
2022-10-11T13:41:10.370Z,3.10
2022-10-11T13:46:19.913Z,2.83
2022-10-11T13:51:38.368Z,3.00
2022-10-11T13:57:01.336Z,3.30
2022-10-11T14:02:17.355Z,3.22
2022-10-11T14:07:47.555Z,4.00
2022-10-11T14:18:54.618Z,2.58
2022-10-11T14:24:10.750Z,2.88
2022-10-11T14:29:28.965Z,2.30
2022-10-11T14:34:47.348Z,2.42
2022-10-11T14:39:50.653Z,3.00
2022-10-11T14:44:52.124Z,2.58
2022-10-11T14:49:53.783Z,3.30
2022-10-11T14:55:07.339Z,3.75
2022-10-11T15:00:36.395Z,2.78
2022-10-11T15:05:42.771Z,3.97
2022-10-11T15:10:51.299Z,3.80
2022-10-11T15:15:52.884Z,3.58
2022-10-11T15:20:54.676Z,3.95
2022-10-11T15:25:57.087Z,4.10
2022-10-11T15:31:04.870Z,3.60
2022-10-11T15:36:11.233Z,3.97
2022-10-11T15:41:14.080Z,4.38
2022-10-11T15:46:20.977Z,4.22
2022-10-11T15:56:52.082Z,3.88
2022-10-11T16:01:54.148Z,4.47
2022-10-11T16:06:58.343Z,4.50
2022-10-11T16:12:00.217Z,3.70
2022-10-11T16:17:51.655Z,4.15
2022-10-11T16:44:57.558Z,4.22
2022-10-11T16:49:59.558Z,6.53
2022-10-11T16:55:23.276Z,5.38
2022-10-11T17:05:50.453Z,7.97
2022-10-11T17:10:57.883Z,9.50
2022-10-11T17:15:59.794Z,10.32
2022-10-11T17:21:29.443Z,9.57
2022-10-11T17:38:31.180Z,6.40
2022-10-11T17:43:41.028Z,7.38
2022-10-11T17:48:42.684Z,6.57
2022-10-11T17:53:44.768Z,6.15
2022-10-11T17:58:46.978Z,6.60
2022-10-11T18:04:05.756Z,6.80
2022-10-11T18:09:07.581Z,6.32
2022-10-11T18:14:23.923Z,7.22
2022-10-11T18:19:26.331Z,6.95
2022-10-11T18:24:31.315Z,7.55
2022-10-11T18:29:38.978Z,8.07
2022-10-11T18:34:40.437Z,8.90
2022-10-11T18:39:42.040Z,8.50
2022-10-11T18:44:43.517Z,8.00
2022-10-11T18:56:09.100Z,8.02
2022-10-11T19:01:12.272Z,7.55
2022-10-11T19:12:48.018Z,6.88
2022-10-11T19:23:24.553Z,7.10
2022-10-11T19:34:38.211Z,6.95
2022-10-11T19:45:52.459Z,6.55
2022-10-11T19:51:02.422Z,7.80
2022-10-11T20:02:18.773Z,6.85
2022-10-11T20:07:23.523Z,6.32
2022-10-11T20:12:29.537Z,6.20
2022-10-11T20:17:31.372Z,6.32
2022-10-11T20:22:35.801Z,5.68
2022-10-11T20:27:37.457Z,6.28
2022-10-11T20:32:39.007Z,7.22
2022-10-11T20:37:40.406Z,6.38
2022-10-11T20:42:41.823Z,6.28
2022-10-11T20:47:43.287Z,5.53
2022-10-11T20:52:45.030Z,5.13
2022-10-11T20:57:47.215Z,5.65
2022-10-11T21:02:50.384Z,6.38
2022-10-11T21:07:51.951Z,5.97
2022-10-11T21:12:55.106Z,6.65
2022-10-11T21:17:56.923Z,6.32
2022-10-11T21:22:58.528Z,5.95
2022-10-11T21:28:00.024Z,6.55
2022-10-11T21:33:01.846Z,6.25
2022-10-11T21:38:03.262Z,6.70
2022-10-11T21:43:04.927Z,6.22
2022-10-11T21:48:07.722Z,5.85
2022-10-11T21:53:09.268Z,6.85
2022-10-11T21:58:10.655Z,10.30
2022-10-11T22:03:12.038Z,14.02
2022-10-11T22:08:15.075Z,27.08
2022-10-11T22:13:16.584Z,32.38
2022-10-11T22:18:18.563Z,26.92
2022-10-11T22:23:23.214Z,16.08
2022-10-11T22:28:25.053Z,9.57
2022-10-11T22:33:26.805Z,10.23
2022-10-11T22:38:29.016Z,7.47
2022-10-11T22:43:30.588Z,7.90
2022-10-11T22:48:32.221Z,6.22
2022-10-11T22:53:42.920Z,6.40
2022-10-11T22:58:44.360Z,6.18
2022-10-11T23:03:48.988Z,7.00
2022-10-11T23:08:50.595Z,6.22
2022-10-11T23:13:52.039Z,6.10
2022-10-11T23:18:54.436Z,6.85
2022-10-11T23:23:55.935Z,6.07
2022-10-11T23:29:00.317Z,5.28
2022-10-11T23:34:03.682Z,5.97
2022-10-11T23:39:07.594Z,6.03
2022-10-11T23:44:14.073Z,5.15
2022-10-11T23:49:20.422Z,3.92
2022-10-11T23:54:21.790Z,5.43
2022-10-11T23:59:23.374Z,4.95
